createdAt,value
2023-05-20T00:07:28.028Z,71.39
2023-05-20T00:15:52.157Z,71.80
2023-05-20T00:24:15.263Z,71.67
2023-05-20T00:32:38.254Z,71.49
2023-05-20T00:41:02.884Z,71.67
2023-05-20T00:49:25.806Z,71.69
2023-05-20T00:57:49.513Z,71.92
2023-05-20T01:06:12.501Z,71.83
2023-05-20T01:14:52.741Z,71.88
2023-05-20T01:23:15.769Z,71.95
2023-05-20T01:31:39.284Z,71.72
2023-05-20T01:40:05.273Z,71.94
2023-05-20T01:48:28.385Z,71.76
2023-05-20T01:56:51.830Z,71.97
2023-05-20T02:05:16.550Z,72.03
2023-05-20T02:13:39.810Z,72.03
2023-05-20T02:22:02.773Z,72.15
2023-05-20T02:30:27.150Z,72.25
2023-05-20T02:38:50.201Z,72.15
2023-05-20T02:47:14.447Z,72.14
2023-05-20T02:55:37.733Z,72.21
2023-05-20T03:04:00.868Z,72.22
2023-05-20T03:12:26.271Z,72.43
2023-05-20T03:20:49.174Z,72.37
2023-05-20T03:29:12.654Z,72.38
2023-05-20T03:37:36.844Z,72.63
2023-05-20T03:46:00.281Z,72.50
2023-05-20T03:54:23.438Z,72.59
2023-05-20T04:02:48.377Z,72.56
2023-05-20T04:11:13.149Z,72.69
2023-05-20T04:19:38.303Z,72.67
2023-05-20T04:28:01.717Z,72.66
2023-05-20T04:36:28.865Z,72.50
2023-05-20T04:44:52.689Z,72.76
2023-05-20T04:53:17.633Z,72.73
2023-05-20T05:01:40.943Z,72.86
2023-05-20T05:10:04.536Z,72.82
2023-05-20T05:18:28.357Z,72.65
2023-05-20T05:26:55.209Z,72.79
2023-05-20T05:35:18.479Z,72.83
2023-05-20T05:43:41.551Z,72.95
2023-05-20T05:52:04.876Z,73.25
2023-05-20T06:00:28.043Z,73.24
2023-05-20T06:08:51.590Z,73.39
2023-05-20T06:17:15.522Z,73.35
2023-05-20T06:25:39.023Z,73.54
2023-05-20T06:34:03.312Z,73.18
2023-05-20T06:42:26.769Z,73.39
2023-05-20T06:50:59.959Z,73.33
2023-05-20T06:59:23.131Z,73.22
2023-05-20T07:07:46.232Z,73.48
2023-05-20T07:16:09.957Z,73.19
2023-05-20T07:24:36.874Z,73.25
2023-05-20T07:33:01.003Z,73.11
2023-05-20T07:41:24.396Z,73.05
2023-05-20T07:49:47.509Z,72.89
2023-05-20T07:58:10.650Z,72.82
2023-05-20T08:06:35.647Z,72.64
2023-05-20T08:15:00.202Z,72.46
2023-05-20T08:23:23.806Z,72.36
2023-05-20T08:31:47.458Z,72.24
2023-05-20T08:40:13.580Z,72.30
2023-05-20T08:48:37.516Z,72.16
2023-05-20T08:57:00.907Z,72.13
2023-05-20T09:05:23.832Z,71.82
2023-05-20T09:13:47.140Z,71.70
2023-05-20T09:22:11.226Z,71.77
2023-05-20T09:30:34.812Z,71.68
2023-05-20T09:39:05.359Z,71.51
2023-05-20T09:47:28.400Z,71.58
2023-05-20T09:55:52.474Z,71.29
2023-05-20T10:04:17.701Z,71.13
2023-05-20T10:12:46.907Z,71.12
2023-05-20T10:21:17.832Z,70.90
2023-05-20T10:29:50.229Z,70.96
2023-05-20T10:38:13.707Z,70.80
2023-05-20T10:46:51.460Z,70.52
2023-05-20T10:55:22.070Z,70.37
2023-05-20T11:03:49.775Z,70.25
2023-05-20T11:12:14.644Z,70.41
2023-05-20T11:20:38.777Z,70.22
2023-05-20T11:29:02.182Z,70.02
2023-05-20T11:41:47.508Z,70.07
2023-05-20T11:50:11.421Z,69.96
2023-05-20T11:58:34.374Z,69.76
2023-05-20T12:06:57.295Z,69.68
2023-05-20T12:15:20.289Z,69.63
2023-05-20T12:23:43.142Z,69.29
2023-05-20T12:32:06.483Z,69.34
2023-05-20T12:40:29.846Z,69.41
2023-05-20T12:48:53.226Z,69.20
2023-05-20T12:57:16.689Z,69.00
2023-05-20T13:05:39.561Z,69.00
2023-05-20T13:14:02.427Z,68.84
2023-05-20T13:22:25.795Z,68.83
2023-05-20T13:30:48.730Z,68.88
2023-05-20T13:39:11.975Z,68.81
2023-05-20T13:47:34.904Z,68.56
2023-05-20T13:55:58.841Z,68.50
2023-05-20T14:04:22.297Z,68.32
2023-05-20T14:12:48.132Z,68.31
2023-05-20T14:21:12.191Z,68.22
2023-05-20T14:29:35.117Z,68.23
2023-05-20T14:37:59.369Z,68.10
2023-05-20T14:46:23.006Z,68.08
2023-05-20T14:54:46.179Z,68.03
2023-05-20T15:03:09.201Z,68.05
2023-05-20T15:11:32.500Z,67.92
2023-05-20T15:19:55.498Z,67.89
2023-05-20T15:28:19.898Z,67.68
2023-05-20T15:36:42.840Z,67.64
2023-05-20T15:45:07.376Z,67.42
2023-05-20T15:53:30.364Z,67.36
2023-05-20T16:01:54.726Z,67.36
2023-05-20T16:10:18.709Z,67.24
2023-05-20T16:18:41.587Z,67.44
2023-05-20T16:27:04.993Z,67.26
2023-05-20T16:35:27.929Z,66.97
2023-05-20T16:43:50.775Z,67.12
2023-05-20T16:52:13.740Z,67.07
2023-05-20T17:00:36.631Z,66.95
2023-05-20T17:09:00.272Z,66.88
2023-05-20T17:17:23.138Z,66.59
2023-05-20T17:25:47.628Z,66.85
2023-05-20T17:34:10.581Z,66.50
2023-05-20T17:42:34.063Z,66.46
2023-05-20T17:50:58.220Z,66.33
2023-05-20T17:59:21.467Z,66.23
2023-05-20T18:07:44.374Z,66.07
2023-05-20T18:16:07.526Z,66.14
2023-05-20T18:24:30.739Z,65.80
2023-05-20T18:32:54.003Z,65.84
2023-05-20T18:41:16.897Z,65.94
2023-05-20T18:49:39.727Z,65.78
2023-05-20T18:58:03.067Z,65.69
2023-05-20T19:06:25.909Z,65.56
2023-05-20T19:14:49.068Z,65.39
2023-05-20T19:23:12.013Z,65.40
2023-05-20T19:31:35.081Z,65.43
2023-05-20T19:39:58.019Z,65.41
2023-05-20T19:48:22.511Z,65.20
2023-05-20T19:56:45.580Z,65.22
2023-05-20T20:05:08.850Z,65.22
2023-05-20T20:13:32.228Z,65.03
2023-05-20T20:21:58.793Z,65.11
2023-05-20T20:30:21.746Z,65.14
2023-05-20T20:38:46.944Z,64.97
2023-05-20T20:47:10.061Z,64.98
2023-05-20T20:55:34.404Z,64.88
2023-05-20T21:03:58.791Z,64.78
2023-05-20T21:12:21.964Z,64.88
2023-05-20T21:20:44.847Z,64.96
2023-05-20T21:29:10.050Z,64.69
2023-05-20T21:37:33.004Z,64.87
2023-05-20T21:45:56.218Z,64.66
2023-05-20T21:54:19.082Z,64.86
2023-05-20T22:02:42.063Z,64.84
2023-05-20T22:11:05.931Z,64.59
2023-05-20T22:19:30.800Z,64.63
2023-05-20T22:27:53.792Z,64.77
2023-05-20T22:36:16.622Z,64.57
2023-05-20T22:44:39.650Z,64.57
2023-05-20T22:53:03.054Z,64.52
2023-05-20T23:01:26.052Z,64.44
2023-05-20T23:09:49.099Z,64.39
2023-05-20T23:18:12.232Z,64.60
2023-05-20T23:26:37.706Z,64.42
2023-05-20T23:35:04.899Z,64.57
2023-05-20T23:43:27.827Z,64.55
2023-05-20T23:51:51.915Z,64.62
